KHND

Henderson Executive Airport

Las Vegas, Nevada, USA
METAR KHND 151256Z AUTO 15008KT 10SM CLR 04/M09 A3030 RMK AO2 SLP265 T00391094 $
Observed Flight Rules
Dec-15 @ 12:56 UTC (an hour ago) Visual Flight Rules
Wind Visibility Clouds
150° at 8 knots 10 miles
  • Clear skies
Temperatures Readings
Current 4°C / 39°F
Dewpoint -9°C / 16°F
Humidity 39%
Altimeter 30.3" Hg
Pressure 1026.5 hPa
Elevation 749
METAR KHND 151256Z AUTO 15008KT 10SM CLR 04/M09 A3030 RMK AO2 SLP265 T00391094 $
Observed Flight Rules
Dec-15 @ 12:56 UTC
(an hour ago)
VFR
Wind Visibility
150° at 8 knots 10 miles
Clouds
  • Clear skies
Temperature Dewpoint
4°C / 39°F -9°C / 16°F
Humidity Altimeter Pressure
39% 30.3" Hg 1026.5 hPa